createdAt,value
2023-01-31T00:00:10.383Z,1009.78
2023-01-31T00:01:10.370Z,1009.78
2023-01-31T00:02:10.532Z,1009.75
2023-01-31T00:03:10.359Z,1009.74
2023-01-31T00:04:10.329Z,1009.74
2023-01-31T00:05:10.355Z,1009.79
2023-01-31T00:06:10.300Z,1009.77
2023-01-31T00:07:10.316Z,1009.78
2023-01-31T00:08:10.278Z,1009.79
2023-01-31T00:09:10.270Z,1009.80
2023-01-31T00:10:10.250Z,1009.76
2023-01-31T00:11:10.255Z,1009.77
2023-01-31T00:12:10.222Z,1009.76
2023-01-31T00:13:10.231Z,1009.82
2023-01-31T00:14:10.201Z,1009.79
2023-01-31T00:15:10.191Z,1009.82
2023-01-31T00:16:10.271Z,1009.83
2023-01-31T00:17:10.160Z,1009.85
2023-01-31T00:18:10.159Z,1009.85
2023-01-31T00:19:10.139Z,1009.81
2023-01-31T00:20:10.120Z,1009.75
2023-01-31T00:21:10.110Z,1009.69
2023-01-31T00:22:10.090Z,1009.71
2023-01-31T00:23:10.100Z,1009.70
2023-01-31T00:24:10.073Z,1009.72
2023-01-31T00:25:10.062Z,1009.72
2023-01-31T00:26:10.111Z,1009.72
2023-01-31T00:27:10.030Z,1009.73
2023-01-31T00:28:10.032Z,1009.80
2023-01-31T00:29:10.008Z,1009.86
2023-01-31T00:30:09.998Z,1009.86
2023-01-31T00:31:10.113Z,1009.88
2023-01-31T00:32:10.118Z,1009.91
2023-01-31T00:33:09.969Z,1009.92
2023-01-31T00:34:09.939Z,1009.95
2023-01-31T00:35:09.927Z,1010.01
2023-01-31T00:36:09.909Z,1010.05
2023-01-31T00:37:09.907Z,1009.99
2023-01-31T00:38:09.902Z,1010.00
2023-01-31T00:39:09.869Z,1009.97
2023-01-31T00:40:09.868Z,1009.96
2023-01-31T00:41:09.855Z,1009.96
2023-01-31T00:42:09.829Z,1009.95
2023-01-31T00:43:09.860Z,1009.97
2023-01-31T00:44:09.816Z,1009.99
2023-01-31T00:45:09.788Z,1009.99
2023-01-31T00:46:09.777Z,1009.98
2023-01-31T00:47:09.777Z,1010.01
2023-01-31T00:48:09.768Z,1010.05
2023-01-31T00:49:09.747Z,1010.00
2023-01-31T00:50:09.726Z,1010.00
2023-01-31T00:51:09.719Z,1010.04
2023-01-31T00:52:09.738Z,1010.05
2023-01-31T00:53:09.707Z,1010.02
2023-01-31T00:54:09.678Z,1010.10
2023-01-31T00:55:09.690Z,1010.18
2023-01-31T00:56:09.648Z,1010.14
2023-01-31T00:57:09.647Z,1010.14
2023-01-31T00:58:09.636Z,1010.11
2023-01-31T00:59:09.619Z,1010.05
2023-01-31T01:00:09.590Z,1010.04
2023-01-31T01:01:09.657Z,1010.07
2023-01-31T01:02:09.657Z,1010.05
2023-01-31T01:03:09.577Z,1010.07
2023-01-31T01:04:09.546Z,1010.10
2023-01-31T01:05:09.537Z,1010.06
2023-01-31T01:06:09.535Z,1010.06
2023-01-31T01:07:09.509Z,1010.05
2023-01-31T01:08:09.508Z,1010.04
2023-01-31T01:09:09.478Z,1010.01
2023-01-31T01:10:09.469Z,1010.02
2023-01-31T01:11:09.456Z,1010.05
2023-01-31T01:12:09.440Z,1010.05
2023-01-31T01:13:09.431Z,1010.09
2023-01-31T01:14:09.426Z,1010.10
2023-01-31T01:15:09.404Z,1010.15
2023-01-31T01:16:09.448Z,1010.15
2023-01-31T01:17:09.377Z,1010.17
2023-01-31T01:18:09.365Z,1010.16
2023-01-31T01:19:09.369Z,1010.13
2023-01-31T01:20:09.340Z,1010.14
2023-01-31T01:21:09.369Z,1010.15
2023-01-31T01:22:09.311Z,1010.12
2023-01-31T01:23:09.305Z,1010.07
2023-01-31T01:24:09.299Z,1010.07
2023-01-31T01:25:09.283Z,1010.11
2023-01-31T01:26:09.257Z,1010.11
2023-01-31T01:27:09.238Z,1010.12
2023-01-31T01:28:09.227Z,1010.15
2023-01-31T01:29:09.237Z,1010.12
2023-01-31T01:30:09.206Z,1010.12
2023-01-31T01:31:09.278Z,1010.12
2023-01-31T01:32:09.229Z,1010.09
2023-01-31T01:33:09.156Z,1010.07
2023-01-31T01:34:09.167Z,1010.10
2023-01-31T01:35:09.135Z,1010.09
2023-01-31T01:36:09.127Z,1010.06
2023-01-31T01:49:09.832Z,1010.09
2023-01-31T01:49:53.682Z,1010.11
2023-01-31T01:50:53.672Z,1010.08
2023-01-31T01:51:53.670Z,1010.08
2023-01-31T01:52:53.667Z,1010.12
2023-01-31T01:53:53.660Z,1010.10
2023-01-31T01:54:53.662Z,1010.08
2023-01-31T01:55:53.612Z,1010.12
2023-01-31T01:56:53.610Z,1010.10
2023-01-31T01:57:53.582Z,1010.08
2023-01-31T01:58:53.611Z,1010.07
2023-01-31T01:59:53.561Z,1010.07
2023-01-31T02:00:53.598Z,1010.05
2023-01-31T02:01:53.580Z,1010.07
2023-01-31T02:02:53.539Z,1010.03
2023-01-31T02:03:53.527Z,1010.03
2023-01-31T02:04:53.538Z,1010.03
2023-01-31T02:05:53.638Z,1010.00
2023-01-31T02:06:53.493Z,1010.04
2023-01-31T02:07:53.454Z,1010.04
2023-01-31T02:08:53.516Z,1010.02
2023-01-31T02:09:53.484Z,1010.02
2023-01-31T02:10:53.436Z,1010.03
2023-01-31T02:11:53.414Z,1010.06
2023-01-31T02:12:53.416Z,1010.05
2023-01-31T02:13:53.408Z,1010.04
2023-01-31T02:14:53.394Z,1010.08
2023-01-31T02:15:53.368Z,1010.05
2023-01-31T02:16:53.414Z,1010.03
2023-01-31T02:17:53.336Z,1010.03
2023-01-31T02:18:53.333Z,1010.03
2023-01-31T02:19:53.335Z,1010.07
2023-01-31T02:20:53.284Z,1010.03
2023-01-31T02:21:53.285Z,1010.01
2023-01-31T02:22:53.274Z,1009.98
2023-01-31T02:23:53.250Z,1010.02
2023-01-31T02:24:53.278Z,1010.01
2023-01-31T02:25:53.243Z,1010.01
2023-01-31T02:26:53.224Z,1010.02
2023-01-31T02:27:53.206Z,1010.00
2023-01-31T02:28:53.220Z,1009.95
2023-01-31T02:29:53.215Z,1009.95
2023-01-31T02:30:53.242Z,1009.95
2023-01-31T02:31:53.172Z,1009.92
2023-01-31T02:32:53.180Z,1009.97
2023-01-31T02:33:53.128Z,1009.97
2023-01-31T02:34:53.155Z,1009.99
2023-01-31T02:35:53.119Z,1009.96
2023-01-31T02:36:53.093Z,1009.98
2023-01-31T02:37:53.096Z,1010.01
2023-01-31T02:38:53.076Z,1009.97
2023-01-31T02:39:53.114Z,1009.99
2023-01-31T02:40:53.043Z,1009.99
2023-01-31T02:41:53.033Z,1009.99
2023-01-31T02:42:53.022Z,1009.98
2023-01-31T02:43:52.994Z,1009.99
2023-01-31T02:44:53.006Z,1009.94
2023-01-31T02:45:52.982Z,1009.94
2023-01-31T02:46:52.963Z,1009.94
2023-01-31T02:47:52.944Z,1009.95
2023-01-31T02:48:52.941Z,1009.93
2023-01-31T02:49:52.943Z,1009.90
2023-01-31T02:50:52.903Z,1009.97
2023-01-31T02:51:52.905Z,1009.99
2023-01-31T02:52:52.914Z,1009.96
2023-01-31T02:53:52.871Z,1009.99
2023-01-31T02:54:52.869Z,1010.00
2023-01-31T02:55:52.852Z,1010.01
2023-01-31T02:56:52.823Z,1010.07
2023-01-31T02:57:52.825Z,1010.05
2023-01-31T02:58:52.802Z,1010.04
2023-01-31T02:59:52.793Z,1010.05
2023-01-31T03:00:52.805Z,1010.10
2023-01-31T03:01:52.767Z,1010.13
2023-01-31T03:02:52.771Z,1010.17
2023-01-31T03:03:52.760Z,1010.16
2023-01-31T03:04:52.726Z,1010.22
2023-01-31T03:05:52.722Z,1010.25
2023-01-31T03:06:52.699Z,1010.24
2023-01-31T03:07:52.680Z,1010.27
2023-01-31T03:08:52.673Z,1010.26
2023-01-31T03:09:52.662Z,1010.28
2023-01-31T03:10:52.682Z,1010.24
2023-01-31T03:11:52.623Z,1010.31
2023-01-31T03:12:52.621Z,1010.29
2023-01-31T03:13:52.607Z,1010.28
2023-01-31T03:14:52.614Z,1010.30
2023-01-31T03:15:52.602Z,1010.34
2023-01-31T03:16:52.627Z,1010.32
2023-01-31T03:17:52.552Z,1010.28
2023-01-31T03:18:52.532Z,1010.22
2023-01-31T03:19:52.533Z,1010.21
2023-01-31T03:20:52.523Z,1010.22
2023-01-31T03:21:52.512Z,1010.22
2023-01-31T03:22:52.485Z,1010.28
2023-01-31T03:23:52.473Z,1010.24
2023-01-31T03:24:52.459Z,1010.27
2023-01-31T03:25:52.452Z,1010.29
2023-01-31T03:26:52.525Z,1010.32
2023-01-31T03:27:52.424Z,1010.34
2023-01-31T03:28:52.402Z,1010.35
2023-01-31T03:29:52.400Z,1010.35
2023-01-31T03:30:52.421Z,1010.32
2023-01-31T03:31:52.449Z,1010.31
2023-01-31T03:32:52.352Z,1010.34
2023-01-31T03:33:52.330Z,1010.36
2023-01-31T03:34:52.339Z,1010.39
2023-01-31T03:35:52.311Z,1010.33
2023-01-31T03:36:52.329Z,1010.38
2023-01-31T03:37:52.291Z,1010.35
2023-01-31T03:38:52.271Z,1010.36
2023-01-31T03:39:52.271Z,1010.42
2023-01-31T03:40:52.249Z,1010.34
2023-01-31T03:41:52.266Z,1010.36
2023-01-31T03:42:52.211Z,1010.38
2023-01-31T03:43:52.214Z,1010.37
2023-01-31T03:44:52.190Z,1010.40
2023-01-31T03:45:52.217Z,1010.42
2023-01-31T03:46:52.192Z,1010.44
2023-01-31T03:47:52.154Z,1010.48
2023-01-31T03:48:52.142Z,1010.43
2023-01-31T03:49:52.133Z,1010.38
2023-01-31T03:50:52.117Z,1010.41
2023-01-31T03:51:52.125Z,1010.42
2023-01-31T03:52:52.088Z,1010.48
2023-01-31T03:53:52.082Z,1010.45
2023-01-31T03:54:52.061Z,1010.47
2023-01-31T03:55:52.042Z,1010.40
2023-01-31T03:56:52.041Z,1010.44
2023-01-31T03:57:52.027Z,1010.48
2023-01-31T03:58:52.001Z,1010.45
2023-01-31T03:59:52.001Z,1010.45
2023-01-31T04:00:51.979Z,1010.44
2023-01-31T04:01:52.019Z,1010.46
2023-01-31T04:02:51.970Z,1010.43
2023-01-31T04:03:51.950Z,1010.39
2023-01-31T04:04:51.939Z,1010.36
2023-01-31T04:05:51.920Z,1010.36
2023-01-31T04:06:51.932Z,1010.32
2023-01-31T04:07:51.897Z,1010.30
2023-01-31T04:08:51.883Z,1010.27
2023-01-31T04:09:51.869Z,1010.29
2023-01-31T04:10:51.862Z,1010.24
2023-01-31T04:11:51.867Z,1010.16
2023-01-31T04:12:51.828Z,1010.11
2023-01-31T04:13:51.819Z,1010.16
2023-01-31T04:14:51.812Z,1010.23
2023-01-31T04:15:51.830Z,1010.22
2023-01-31T04:16:51.794Z,1010.19
2023-01-31T04:17:51.775Z,1010.13
2023-01-31T04:18:51.750Z,1010.13
2023-01-31T04:19:51.740Z,1010.14
2023-01-31T04:20:51.726Z,1010.16
2023-01-31T04:21:51.733Z,1010.21
2023-01-31T04:22:51.693Z,1010.22
2023-01-31T04:23:51.689Z,1010.23
2023-01-31T04:24:51.674Z,1010.20
2023-01-31T04:25:51.669Z,1010.17
2023-01-31T04:26:51.701Z,1010.20
2023-01-31T04:27:51.648Z,1010.22
2023-01-31T04:28:51.628Z,1010.16
2023-01-31T04:29:51.610Z,1010.13
2023-01-31T04:30:51.620Z,1010.10
2023-01-31T04:31:51.666Z,1010.08
2023-01-31T04:32:51.579Z,1010.12
2023-01-31T04:33:51.558Z,1010.15
2023-01-31T04:34:51.547Z,1010.18
2023-01-31T04:35:51.542Z,1010.20
2023-01-31T04:36:51.541Z,1010.22
2023-01-31T04:37:51.509Z,1010.16
2023-01-31T04:38:51.488Z,1010.11
2023-01-31T04:39:51.489Z,1010.15
2023-01-31T04:40:51.474Z,1010.21
2023-01-31T04:41:51.443Z,1010.22
2023-01-31T04:42:51.464Z,1010.19
2023-01-31T04:43:51.447Z,1010.16
2023-01-31T04:44:51.409Z,1010.09
2023-01-31T04:45:51.413Z,1010.07
2023-01-31T04:46:51.431Z,1010.07
2023-01-31T04:47:51.381Z,1010.13
2023-01-31T04:48:51.358Z,1010.18
2023-01-31T04:49:51.340Z,1010.15
2023-01-31T04:50:51.339Z,1010.13
2023-01-31T04:51:51.317Z,1010.08
2023-01-31T04:52:51.318Z,1010.11
2023-01-31T04:53:51.309Z,1010.16
2023-01-31T04:54:51.280Z,1010.15
2023-01-31T04:55:51.283Z,1010.08
2023-01-31T04:56:51.255Z,1010.06
2023-01-31T04:57:51.260Z,1010.07
2023-01-31T04:58:51.228Z,1010.07
2023-01-31T04:59:51.225Z,1010.06
2023-01-31T05:00:51.260Z,1010.04
2023-01-31T05:01:51.199Z,1010.07
2023-01-31T05:02:51.236Z,1010.07
2023-01-31T05:03:51.171Z,1010.14
2023-01-31T05:04:51.147Z,1010.12
2023-01-31T05:05:51.141Z,1010.10
2023-01-31T05:06:51.127Z,1010.03
2023-01-31T05:07:51.138Z,1010.06
2023-01-31T05:08:51.096Z,1010.05
2023-01-31T05:09:51.078Z,1010.05
2023-01-31T05:10:51.095Z,1010.01
2023-01-31T05:11:51.064Z,1010.03
2023-01-31T05:12:51.072Z,1010.04
2023-01-31T05:13:51.039Z,1010.05
2023-01-31T05:14:51.018Z,1010.00
2023-01-31T05:15:51.012Z,1009.94
2023-01-31T05:16:51.012Z,1009.94
2023-01-31T05:17:50.999Z,1009.93
2023-01-31T05:18:50.981Z,1009.96
2023-01-31T05:19:50.980Z,1009.94
2023-01-31T05:20:50.946Z,1009.90
2023-01-31T05:21:50.928Z,1009.88
2023-01-31T05:22:50.942Z,1009.89
2023-01-31T05:23:50.914Z,1009.90
2023-01-31T05:24:50.884Z,1009.93
2023-01-31T05:25:50.934Z,1009.92
2023-01-31T05:26:50.882Z,1009.86
2023-01-31T05:27:50.866Z,1009.87
2023-01-31T05:28:50.829Z,1009.92
2023-01-31T05:29:50.825Z,1009.86
2023-01-31T05:30:50.819Z,1009.88
2023-01-31T05:31:50.865Z,1009.87
2023-01-31T05:32:50.786Z,1009.89
2023-01-31T05:33:50.766Z,1009.89
2023-01-31T05:34:50.758Z,1009.88
2023-01-31T05:35:50.745Z,1009.89
2023-01-31T05:36:50.718Z,1009.86
2023-01-31T05:37:50.716Z,1009.89
2023-01-31T05:38:50.729Z,1009.86
2023-01-31T05:39:50.711Z,1009.82
2023-01-31T05:40:50.688Z,1009.85
2023-01-31T05:41:50.673Z,1009.83
2023-01-31T05:42:50.646Z,1009.78
2023-01-31T05:43:50.655Z,1009.77
2023-01-31T05:44:50.625Z,1009.76
2023-01-31T05:45:50.632Z,1009.80
2023-01-31T05:46:50.598Z,1009.84
2023-01-31T05:47:50.586Z,1009.83
2023-01-31T05:48:50.586Z,1009.83
2023-01-31T05:49:50.591Z,1009.83
2023-01-31T05:50:50.577Z,1009.87
2023-01-31T05:51:50.538Z,1009.85
2023-01-31T05:52:50.524Z,1009.85
2023-01-31T05:53:50.547Z,1009.86
2023-01-31T05:54:50.495Z,1009.84
2023-01-31T05:55:50.495Z,1009.85
2023-01-31T05:56:50.485Z,1009.85
2023-01-31T05:57:50.578Z,1009.83
2023-01-31T05:58:50.452Z,1009.78
2023-01-31T05:59:50.446Z,1009.79
2023-01-31T06:00:50.424Z,1009.82
2023-01-31T06:01:50.428Z,1009.83
2023-01-31T06:02:50.474Z,1009.84
2023-01-31T06:03:50.400Z,1009.77
2023-01-31T06:04:50.373Z,1009.74
2023-01-31T06:05:50.360Z,1009.77
2023-01-31T06:06:50.338Z,1009.80
2023-01-31T06:07:50.333Z,1009.79
2023-01-31T06:08:50.324Z,1009.80
2023-01-31T06:09:50.312Z,1009.80
2023-01-31T06:10:50.285Z,1009.80
2023-01-31T06:11:50.280Z,1009.79
2023-01-31T06:12:50.282Z,1009.83
2023-01-31T06:13:50.253Z,1009.78
2023-01-31T06:14:50.243Z,1009.85
2023-01-31T06:15:50.373Z,1009.88
2023-01-31T06:16:50.238Z,1009.88
2023-01-31T06:17:50.183Z,1009.88
2023-01-31T06:18:50.216Z,1009.90
2023-01-31T06:19:50.186Z,1009.89
2023-01-31T06:20:50.154Z,1009.90
2023-01-31T06:21:50.163Z,1009.91
2023-01-31T06:22:50.154Z,1009.96
2023-01-31T06:23:50.155Z,1009.91
2023-01-31T06:24:50.188Z,1009.97
2023-01-31T06:25:50.095Z,1009.95
2023-01-31T06:26:50.099Z,1009.92
2023-01-31T06:27:50.069Z,1009.92
2023-01-31T06:28:50.054Z,1009.91
2023-01-31T06:29:50.064Z,1009.86
2023-01-31T06:30:50.123Z,1009.86
2023-01-31T06:31:50.069Z,1009.91
2023-01-31T06:32:50.024Z,1009.95
2023-01-31T06:33:49.996Z,1009.91
2023-01-31T06:34:49.984Z,1009.90
2023-01-31T06:35:49.962Z,1009.90
2023-01-31T06:36:49.953Z,1009.93
2023-01-31T06:37:49.949Z,1009.96
2023-01-31T06:38:49.937Z,1009.95
2023-01-31T06:39:49.931Z,1009.92
2023-01-31T06:40:49.895Z,1009.93
2023-01-31T06:41:49.960Z,1009.87
2023-01-31T06:42:49.854Z,1009.89
2023-01-31T06:43:49.851Z,1009.89
2023-01-31T06:44:49.854Z,1009.92
2023-01-31T06:45:49.903Z,1009.94
2023-01-31T06:46:49.840Z,1009.97
2023-01-31T06:47:49.824Z,1009.92
2023-01-31T06:48:49.790Z,1009.95
2023-01-31T06:49:49.804Z,1010.00
2023-01-31T06:50:49.764Z,1010.00
2023-01-31T06:51:49.766Z,1010.03
2023-01-31T06:52:49.743Z,1010.00
2023-01-31T06:53:49.735Z,1010.03
2023-01-31T06:54:49.723Z,1010.03
2023-01-31T06:55:49.704Z,1009.99
2023-01-31T06:56:49.743Z,1010.00
2023-01-31T06:57:49.689Z,1010.01
2023-01-31T06:58:49.663Z,1010.00
2023-01-31T06:59:49.693Z,1010.00
2023-01-31T07:00:49.623Z,1010.03
2023-01-31T07:01:49.666Z,1010.07
2023-01-31T07:02:49.604Z,1010.10
2023-01-31T07:03:49.603Z,1010.09
2023-01-31T07:04:49.628Z,1010.13
2023-01-31T07:05:49.575Z,1010.10
2023-01-31T07:06:49.567Z,1010.13
2023-01-31T07:07:49.555Z,1010.09
2023-01-31T07:08:49.541Z,1010.10
2023-01-31T07:09:49.542Z,1010.08
2023-01-31T07:10:49.513Z,1010.10
2023-01-31T07:11:49.518Z,1010.06
2023-01-31T07:12:49.487Z,1010.13
2023-01-31T07:13:49.473Z,1010.16
2023-01-31T07:14:49.459Z,1010.14
2023-01-31T07:15:49.470Z,1010.10
2023-01-31T07:16:49.431Z,1010.07
2023-01-31T07:17:49.434Z,1010.04
2023-01-31T07:18:49.402Z,1010.07
2023-01-31T07:19:49.563Z,1010.01
2023-01-31T07:20:49.386Z,1009.99
2023-01-31T07:21:49.403Z,1010.02
2023-01-31T07:22:49.350Z,1010.05
2023-01-31T07:23:49.334Z,1010.06
2023-01-31T07:24:49.326Z,1010.01
2023-01-31T07:25:49.331Z,1010.04
2023-01-31T07:26:49.323Z,1010.04
2023-01-31T07:27:49.292Z,1010.00
2023-01-31T07:28:49.273Z,1010.04
2023-01-31T07:29:49.321Z,1010.01
2023-01-31T07:30:49.269Z,1010.04
2023-01-31T07:31:49.241Z,1009.97
2023-01-31T07:32:49.225Z,1009.98
2023-01-31T07:33:49.249Z,1010.01
2023-01-31T07:34:49.823Z,1010.01
2023-01-31T07:35:49.676Z,1009.97
2023-01-31T07:36:49.566Z,1010.02
2023-01-31T07:37:49.764Z,1010.01
2023-01-31T07:38:49.369Z,1009.99
2023-01-31T07:39:50.555Z,1009.98
2023-01-31T07:40:49.326Z,1010.01
2023-01-31T07:41:49.110Z,1009.97
2023-01-31T07:42:49.099Z,1009.98
2023-01-31T07:43:49.135Z,1010.00
2023-01-31T07:44:49.060Z,1009.96
2023-01-31T07:45:49.085Z,1009.99
2023-01-31T07:46:49.042Z,1009.98
2023-01-31T07:47:49.494Z,1010.03
2023-01-31T07:48:49.758Z,1010.00
2023-01-31T07:49:49.623Z,1009.98
2023-01-31T07:50:49.218Z,1010.00
2023-01-31T07:51:49.193Z,1009.97
2023-01-31T07:52:49.200Z,1009.93
2023-01-31T07:53:49.186Z,1009.93
2023-01-31T07:54:49.132Z,1009.97
2023-01-31T07:55:48.930Z,1009.95
2023-01-31T07:56:48.930Z,1009.95
2023-01-31T07:57:48.920Z,1009.99
2023-01-31T07:58:48.881Z,1010.07
2023-01-31T07:59:48.874Z,1010.02
2023-01-31T08:00:48.885Z,1010.09
2023-01-31T08:01:50.713Z,1010.10
2023-01-31T08:02:48.832Z,1010.11
2023-01-31T08:03:48.811Z,1010.09
2023-01-31T08:04:49.087Z,1010.05
2023-01-31T08:05:48.795Z,1010.07
2023-01-31T08:06:48.845Z,1010.11
2023-01-31T08:07:48.770Z,1010.10
2023-01-31T08:08:48.752Z,1010.07
2023-01-31T08:09:48.740Z,1010.04
2023-01-31T08:10:48.728Z,1010.04
2023-01-31T08:11:48.744Z,1009.99
2023-01-31T08:12:50.157Z,1009.99
2023-01-31T08:13:48.691Z,1009.99
2023-01-31T08:14:48.771Z,1010.02
2023-01-31T08:15:48.883Z,1010.01
2023-01-31T08:16:48.811Z,1010.00
2023-01-31T08:17:48.633Z,1009.98
2023-01-31T08:18:48.624Z,1009.95
2023-01-31T08:19:48.599Z,1009.94
2023-01-31T08:20:48.601Z,1009.92
2023-01-31T08:21:48.606Z,1009.83
2023-01-31T08:22:48.567Z,1009.81
2023-01-31T08:23:48.539Z,1009.77
2023-01-31T08:24:48.538Z,1009.73
2023-01-31T08:25:48.529Z,1009.71
2023-01-31T08:26:48.660Z,1009.68
2023-01-31T08:27:48.507Z,1009.71
2023-01-31T08:28:48.528Z,1009.69
2023-01-31T08:29:48.476Z,1009.70
2023-01-31T08:30:59.169Z,1009.68
2023-01-31T08:31:51.976Z,1009.62
2023-01-31T08:32:48.439Z,1009.54
2023-01-31T08:33:48.440Z,1009.52
2023-01-31T08:34:48.409Z,1009.56
2023-01-31T08:35:48.389Z,1009.58
2023-01-31T08:36:48.760Z,1009.62
2023-01-31T08:37:48.373Z,1009.58
2023-01-31T08:38:48.433Z,1009.63
2023-01-31T08:39:48.335Z,1009.66
2023-01-31T08:40:48.335Z,1009.65
2023-01-31T08:41:48.318Z,1009.66
2023-01-31T08:42:48.296Z,1009.66
2023-01-31T08:43:57.871Z,1009.62
2023-01-31T08:44:49.271Z,1009.62
2023-01-31T08:45:48.271Z,1009.59
2023-01-31T08:46:48.344Z,1009.58
2023-01-31T08:47:48.269Z,1009.55
2023-01-31T08:48:48.252Z,1009.51
2023-01-31T08:49:48.211Z,1009.56
2023-01-31T08:50:48.281Z,1009.64
2023-01-31T08:51:48.194Z,1009.70
2023-01-31T08:52:48.197Z,1009.73
2023-01-31T08:53:48.180Z,1009.77
2023-01-31T08:54:48.147Z,1009.82
2023-01-31T08:55:48.126Z,1009.82
2023-01-31T08:56:48.237Z,1009.81
2023-01-31T08:57:58.488Z,1009.81
2023-01-31T08:58:49.137Z,1009.72
2023-01-31T08:59:48.088Z,1009.69
2023-01-31T09:00:48.074Z,1009.75
2023-01-31T09:01:48.109Z,1009.81
2023-01-31T09:02:48.063Z,1009.83
2023-01-31T09:03:48.025Z,1009.83
2023-01-31T09:04:48.125Z,1009.86
2023-01-31T09:05:47.993Z,1009.81
2023-01-31T09:06:47.997Z,1009.85
2023-01-31T09:07:47.965Z,1009.82
2023-01-31T09:08:48.001Z,1009.86
2023-01-31T09:09:47.955Z,1009.82
2023-01-31T09:10:47.948Z,1009.76
2023-01-31T09:11:47.938Z,1009.70
2023-01-31T09:12:47.907Z,1009.74
2023-01-31T09:13:47.897Z,1009.77
2023-01-31T09:14:47.881Z,1009.73
2023-01-31T09:15:47.856Z,1009.74
2023-01-31T09:16:47.867Z,1009.72
2023-01-31T09:17:47.861Z,1009.61
2023-01-31T09:18:47.876Z,1009.57
2023-01-31T09:19:47.820Z,1009.49
2023-01-31T09:20:47.798Z,1009.60
2023-01-31T09:21:47.825Z,1009.57
2023-01-31T09:22:47.779Z,1009.55
2023-01-31T09:23:47.758Z,1009.56
2023-01-31T09:24:47.889Z,1009.53
2023-01-31T09:25:48.304Z,1009.58
2023-01-31T09:26:47.825Z,1009.55
2023-01-31T09:27:47.726Z,1009.62
2023-01-31T09:28:47.687Z,1009.59
2023-01-31T09:29:47.678Z,1009.60
2023-01-31T09:30:47.722Z,1009.59
2023-01-31T09:31:47.750Z,1009.58
2023-01-31T09:32:47.657Z,1009.57
2023-01-31T09:33:47.625Z,1009.62
2023-01-31T09:34:47.627Z,1009.61
2023-01-31T09:35:47.616Z,1009.60
2023-01-31T09:36:47.600Z,1009.55
2023-01-31T09:37:47.597Z,1009.58
2023-01-31T09:38:47.569Z,1009.66
2023-01-31T09:39:47.719Z,1009.62
2023-01-31T09:40:47.539Z,1009.67
2023-01-31T09:41:47.525Z,1009.69
2023-01-31T09:42:47.525Z,1009.63
2023-01-31T09:43:47.488Z,1009.69
2023-01-31T09:44:47.516Z,1009.65
2023-01-31T09:45:47.479Z,1009.71
2023-01-31T09:46:47.551Z,1009.81
2023-01-31T09:47:47.456Z,1009.74
2023-01-31T09:48:47.464Z,1009.77
2023-01-31T09:49:47.456Z,1009.76
2023-01-31T09:50:47.416Z,1009.69
2023-01-31T09:51:47.395Z,1009.70
2023-01-31T09:52:47.385Z,1009.71
2023-01-31T09:53:47.448Z,1009.69
2023-01-31T09:54:47.356Z,1009.68
2023-01-31T09:55:47.414Z,1009.65
2023-01-31T09:56:47.354Z,1009.62
2023-01-31T09:57:47.325Z,1009.60
2023-01-31T09:58:47.325Z,1009.57
2023-01-31T09:59:47.293Z,1009.65
2023-01-31T10:00:47.300Z,1009.57
2023-01-31T10:01:47.268Z,1009.60
2023-01-31T10:02:47.264Z,1009.58
2023-01-31T10:03:47.273Z,1009.62
2023-01-31T10:04:47.235Z,1009.65
2023-01-31T10:05:47.204Z,1009.67
2023-01-31T10:06:47.201Z,1009.71
2023-01-31T10:07:47.176Z,1009.69
2023-01-31T10:08:47.204Z,1009.67
2023-01-31T10:09:47.166Z,1009.58
2023-01-31T10:10:47.154Z,1009.49
2023-01-31T10:11:47.126Z,1009.46
2023-01-31T10:12:47.112Z,1009.40
2023-01-31T10:13:47.106Z,1009.38
2023-01-31T10:14:47.094Z,1009.37
2023-01-31T10:15:47.073Z,1009.28
2023-01-31T10:16:47.054Z,1009.33
2023-01-31T10:17:47.099Z,1009.29
2023-01-31T10:18:47.069Z,1009.35
2023-01-31T10:19:47.023Z,1009.28
2023-01-31T10:20:47.024Z,1009.37
2023-01-31T10:21:46.992Z,1009.38
2023-01-31T10:22:46.993Z,1009.26
2023-01-31T10:23:46.994Z,1009.30
2023-01-31T10:24:47.036Z,1009.29
2023-01-31T10:25:46.945Z,1009.29
2023-01-31T10:26:47.049Z,1009.29
2023-01-31T10:27:46.937Z,1009.30
2023-01-31T10:28:46.936Z,1009.23
2023-01-31T10:29:46.897Z,1009.14
2023-01-31T10:30:46.899Z,1009.12
2023-01-31T10:31:47.007Z,1009.20
2023-01-31T10:32:46.854Z,1009.16
2023-01-31T10:33:46.854Z,1009.16
2023-01-31T10:34:46.846Z,1009.17
2023-01-31T10:35:46.812Z,1009.20
2023-01-31T10:36:46.818Z,1009.09
2023-01-31T10:37:46.857Z,1009.05
2023-01-31T10:38:46.809Z,1009.02
2023-01-31T10:39:46.773Z,1009.01
2023-01-31T10:40:46.755Z,1008.98
2023-01-31T10:41:46.737Z,1008.91
2023-01-31T10:42:46.724Z,1008.93
2023-01-31T10:43:46.723Z,1008.93
2023-01-31T10:44:46.693Z,1008.94
2023-01-31T10:45:46.745Z,1008.90
2023-01-31T10:46:46.672Z,1008.93
2023-01-31T10:47:46.661Z,1008.93
2023-01-31T10:48:47.716Z,1008.78
2023-01-31T10:49:46.653Z,1008.74
2023-01-31T10:50:46.614Z,1008.73
2023-01-31T10:51:46.635Z,1008.70
2023-01-31T10:52:49.234Z,1008.65
2023-01-31T10:53:46.606Z,1008.66
2023-01-31T10:54:46.603Z,1008.63
2023-01-31T10:55:46.582Z,1008.63
2023-01-31T10:56:46.606Z,1008.66
2023-01-31T10:57:46.515Z,1008.66
2023-01-31T10:58:46.512Z,1008.73
2023-01-31T10:59:46.521Z,1008.76
2023-01-31T11:00:46.483Z,1008.80
2023-01-31T11:01:46.492Z,1008.80
2023-01-31T11:02:46.819Z,1008.77
2023-01-31T11:03:46.443Z,1008.78
2023-01-31T11:04:46.443Z,1008.71
2023-01-31T11:05:46.428Z,1008.70
2023-01-31T11:06:46.425Z,1008.73
2023-01-31T11:07:46.413Z,1008.67
2023-01-31T11:08:46.400Z,1008.64
2023-01-31T11:09:46.382Z,1008.69
2023-01-31T11:10:46.361Z,1008.67
2023-01-31T11:11:46.335Z,1008.70
2023-01-31T11:12:46.364Z,1008.68
2023-01-31T11:13:46.340Z,1008.61
2023-01-31T11:14:46.318Z,1008.61
2023-01-31T11:15:46.293Z,1008.56
2023-01-31T11:16:46.629Z,1008.62
2023-01-31T11:17:46.296Z,1008.58
2023-01-31T11:18:46.273Z,1008.58
2023-01-31T11:19:46.340Z,1008.54
2023-01-31T11:20:46.284Z,1008.48
2023-01-31T11:21:46.203Z,1008.46
2023-01-31T11:22:46.236Z,1008.37
2023-01-31T11:23:46.189Z,1008.36
2023-01-31T11:24:46.193Z,1008.40
2023-01-31T11:25:46.153Z,1008.32
2023-01-31T11:26:46.201Z,1008.35
2023-01-31T11:27:46.132Z,1008.26
2023-01-31T11:28:46.117Z,1008.28
2023-01-31T11:29:46.124Z,1008.17
2023-01-31T11:30:46.161Z,1008.16
2023-01-31T11:31:46.125Z,1008.18
2023-01-31T11:32:46.072Z,1008.23
2023-01-31T11:33:46.069Z,1008.24
2023-01-31T11:34:46.053Z,1008.30
2023-01-31T11:35:46.087Z,1008.31
2023-01-31T11:36:46.037Z,1008.27
2023-01-31T11:37:46.049Z,1008.29
2023-01-31T11:38:45.985Z,1008.31
2023-01-31T11:39:45.978Z,1008.31
2023-01-31T11:40:45.981Z,1008.31
2023-01-31T11:41:45.947Z,1008.23
2023-01-31T11:42:45.942Z,1008.15
2023-01-31T11:43:45.931Z,1008.16
2023-01-31T11:44:45.922Z,1008.12
2023-01-31T11:45:45.974Z,1008.06
2023-01-31T11:46:45.893Z,1007.97
2023-01-31T11:47:45.875Z,1007.97
2023-01-31T11:48:45.868Z,1007.90
2023-01-31T11:49:45.861Z,1007.92
2023-01-31T11:50:45.894Z,1007.97
2023-01-31T11:51:45.815Z,1007.96
2023-01-31T11:52:45.813Z,1007.96
2023-01-31T11:53:45.804Z,1007.96
2023-01-31T11:54:45.800Z,1007.93
2023-01-31T11:55:45.784Z,1007.89
2023-01-31T11:56:45.762Z,1007.84
2023-01-31T11:57:45.753Z,1007.79
2023-01-31T11:58:45.742Z,1007.81
2023-01-31T11:59:45.714Z,1007.81
2023-01-31T12:00:45.723Z,1007.75
2023-01-31T12:01:45.683Z,1007.78
2023-01-31T12:02:45.692Z,1007.68
2023-01-31T12:04:00.875Z,1007.70
2023-01-31T12:04:46.661Z,1007.70
2023-01-31T12:05:45.651Z,1007.69
2023-01-31T12:06:45.614Z,1007.64
2023-01-31T12:07:45.639Z,1007.58
2023-01-31T12:08:45.593Z,1007.59
2023-01-31T12:09:45.637Z,1007.62
2023-01-31T12:10:45.583Z,1007.65
2023-01-31T12:11:45.565Z,1007.54
2023-01-31T12:12:45.555Z,1007.54
2023-01-31T12:13:45.543Z,1007.48
2023-01-31T12:14:45.532Z,1007.43
2023-01-31T12:15:45.532Z,1007.39
2023-01-31T12:16:45.564Z,1007.42